Howe, IN

9:07 PM EDT on September 30, 2016 (GMT -0400)
INDOT | | Change Station

Elev 846 ft 41.75 °N, 85.44 °W | Updated 47 minutes ago

Light Rain
Light Rain
60.0 °F
Feels Like 60.0 °F
N
14.0
Wind Variable Wind from ENE
Gusts 15.0 mph

Today
High -- | Low -- °F
--% Chance of Precip.
Yesterday
High -- | Low -- °F
Precip. -- in
Pressure 30.05 in
Visibility 10.0 miles
Clouds Mostly Cloudy 700 ft
Mostly Cloudy 3200 ft
Overcast 10000 ft
Dew Point 59.0 °F
Humidity 95%
Rainfall in
Snow Depth Not available.
7:38 AM 7:24 PM
New Moon, 0% visible
METAR KIRS 010055Z AUTO 07007KT 10SM -RA BKN007 BKN032 OVC100 15/14 A3005 RMK AO2 T01520140
Pressure 30.05 in
Visibility 10.0 miles
Clouds Mostly Cloudy 700 ft
Mostly Cloudy 3200 ft
Overcast 10000 ft
Dew Point 59.0 °F
Humidity 95%
Rainfall in
Snow Depth Not available.
7:38 AM 7:24 PM
New Moon, 0% visible
METAR KIRS 010055Z AUTO 07007KT 10SM -RA BKN007 BKN032 OVC100 15/14 A3005 RMK AO2 T01520140

10-Day Weather Forecast

Almanac

Astronomy

Sep. 30, 2016 Rise Set
Actual Time
Civil Twilight
Nautical Twilight
Astronomical Twilight
Moon
Length of Visible Light
Length of Day
Tomorrow will be .
, % of the Moon is Illuminated

Today's Extremes

State Highs State Lows

Community

WunderPhotos

Upload Photos

1,942,826 photos uploaded!

WunderBlog® & News

Nearby

Air Quality

  Air Quality AQ Index Pollutant
Not available.

Snow Depth

Station Depth Elevation

Earthquake Activity

City Distance Mag. Time & Date
Minimum magnitude displayed is 2.5.

Coastal Water Temperatures

Place Temperature

Stations

Nearby Weather Stations

Station Location Temp. Windchill Dew Point Humidity Wind Precip. Elev Updated Type
                   

Watches & Warnings

There are currently no watches in effect.